Time;durP1;ratioP1;P1;durP2;ratioP2;P2;SDS_P1;SDS_P2;PMS_P1;PMS_P2;Temp;Humidity;BMP_temperature;BMP_pressure;BME280_temperature;BME280_humidity;BME280_pressure;Samples;Min_cycle;Max_cycle;Signal;HPM_P1;HPM_P2
2023/02/10 00:01:21;;;;;;;6.50;5.90;;;17.80;48.00;;;;;;5072474;28;20301;-54
2023/02/10 00:03:47;;;;;;;5.68;5.13;;;17.70;47.80;;;;;;5073405;28;20550;-55
2023/02/10 00:06:12;;;;;;;5.97;5.43;;;17.70;47.90;;;;;;5073311;28;20178;-55
2023/02/10 00:08:38;;;;;;;6.40;5.20;;;17.70;48.00;;;;;;5073055;28;20215;-55
2023/02/10 00:11:06;;;;;;;6.43;5.82;;;17.70;47.90;;;;;;5073554;28;20223;-54
2023/02/10 00:13:31;;;;;;;5.55;5.05;;;17.70;47.80;;;;;;5073241;28;20216;-51
2023/02/10 00:15:58;;;;;;;6.38;5.60;;;17.70;47.90;;;;;;5073960;28;20205;-55
2023/02/10 00:18:23;;;;;;;5.80;5.30;;;17.60;47.80;;;;;;5073482;28;20177;-55
2023/02/10 00:20:49;;;;;;;6.07;5.57;;;17.60;47.80;;;;;;5072711;28;20174;-54
2023/02/10 00:23:14;;;;;;;6.55;5.88;;;17.60;47.80;;;;;;5073382;28;20552;-54
2023/02/10 00:25:40;;;;;;;6.10;5.50;;;17.60;47.80;;;;;;5072941;28;20629;-54
2023/02/10 00:28:06;;;;;;;6.45;5.85;;;17.60;47.90;;;;;;5072811;28;20181;-53
2023/02/10 00:30:32;;;;;;;6.68;5.97;;;17.50;47.80;;;;;;5072794;28;20167;-54
2023/02/10 00:32:57;;;;;;;6.30;5.70;;;17.50;47.80;;;;;;5073178;28;20166;-54
2023/02/10 00:35:23;;;;;;;7.05;5.78;;;17.50;47.90;;;;;;5072817;28;20178;-55
2023/02/10 00:37:48;;;;;;;6.70;6.00;;;17.50;47.90;;;;;;5072780;28;20182;-55
2023/02/10 00:40:15;;;;;;;6.00;5.50;;;17.50;47.90;;;;;;5073445;28;20733;-53
2023/02/10 00:42:40;;;;;;;5.97;5.38;;;17.50;47.80;;;;;;5072555;28;20260;-54
2023/02/10 00:45:06;;;;;;;5.68;5.18;;;17.40;47.70;;;;;;5073147;28;20178;-54
2023/02/10 00:47:31;;;;;;;7.57;6.18;;;17.40;47.70;;;;;;5072796;28;20171;-53
2023/02/10 00:49:57;;;;;;;7.07;6.00;;;17.40;47.70;;;;;;5072662;28;20178;-49
2023/02/10 00:52:23;;;;;;;6.25;5.68;;;17.40;47.70;;;;;;5072845;28;20181;-50
2023/02/10 00:54:48;;;;;;;6.25;5.65;;;17.40;47.70;;;;;;5072750;28;20343;-51
2023/02/10 00:57:14;;;;;;;7.85;6.35;;;17.40;47.70;;;;;;5072456;28;20185;-51
2023/02/10 00:59:39;;;;;;;6.65;6.13;;;17.30;47.70;;;;;;5072392;28;20179;-52
2023/02/10 01:02:05;;;;;;;6.80;6.20;;;17.30;47.80;;;;;;5073077;28;20234;-53
2023/02/10 01:04:30;;;;;;;6.43;5.82;;;17.30;47.80;;;;;;5072518;28;20217;-51
2023/02/10 01:06:56;;;;;;;5.75;5.25;;;17.30;47.80;;;;;;5072437;28;20265;-53
2023/02/10 01:09:21;;;;;;;6.63;6.03;;;17.30;47.80;;;;;;5072185;28;20755;-53
2023/02/10 01:11:47;;;;;;;6.60;5.95;;;17.30;47.80;;;;;;5072672;28;20265;-53
2023/02/10 01:14:12;;;;;;;7.03;5.68;;;17.30;47.80;;;;;;5072728;28;20513;-50
2023/02/10 01:16:38;;;;;;;6.75;5.55;;;17.20;47.70;;;;;;5072038;28;20756;-53
2023/02/10 01:19:03;;;;;;;6.55;5.95;;;17.20;47.80;;;;;;5072843;28;20171;-50
2023/02/10 01:21:31;;;;;;;6.80;6.10;;;17.30;47.90;;;;;;5072363;28;20687;-51
2023/02/10 01:23:57;;;;;;;6.53;5.93;;;17.20;47.80;;;;;;5072187;28;20223;-52
2023/02/10 01:26:22;;;;;;;6.78;5.90;;;17.20;47.80;;;;;;5072920;28;20206;-53
2023/02/10 01:28:48;;;;;;;5.93;5.43;;;17.20;47.70;;;;;;5072333;28;20534;-53
2023/02/10 01:31:15;;;;;;;6.40;5.90;;;17.20;47.70;;;;;;5072367;28;20628;-49
2023/02/10 01:33:41;;;;;;;6.50;5.70;;;17.20;47.70;;;;;;5072508;28;20182;-54
2023/02/10 01:36:08;;;;;;;6.55;5.95;;;17.10;47.70;;;;;;5072385;28;20170;-54
2023/02/10 01:38:34;;;;;;;6.40;5.80;;;17.10;47.70;;;;;;5072041;28;20188;-52
2023/02/10 01:41:00;;;;;;;6.53;5.93;;;17.10;47.80;;;;;;5072569;28;20202;-55
2023/02/10 01:43:25;;;;;;;6.70;6.00;;;17.10;47.80;;;;;;5072628;28;20706;-54
2023/02/10 01:45:51;;;;;;;6.85;6.10;;;17.10;47.80;;;;;;5071825;28;20932;-49
2023/02/10 01:48:16;;;;;;;6.70;6.00;;;17.10;47.80;;;;;;5072450;28;20621;-56
2023/02/10 01:50:53;;;;;;;6.00;5.40;;;17.10;47.80;;;;;;5070913;28;20216;-54
2023/02/10 01:53:19;;;;;;;5.90;5.30;;;17.00;47.60;;;;;;5072098;28;20261;-52
2023/02/10 01:55:45;;;;;;;6.38;5.78;;;17.00;47.70;;;;;;5070735;28;20174;-55
2023/02/10 01:58:13;;;;;;;7.50;6.00;;;17.00;47.70;;;;;;5071350;28;20177;-54
2023/02/10 02:00:38;;;;;;;6.15;5.65;;;17.00;47.80;;;;;;5070465;28;20177;-55
2023/02/10 02:03:04;;;;;;;5.53;5.03;;;17.00;47.80;;;;;;5072267;28;20174;-54
2023/02/10 02:05:37;;;;;;;6.28;5.68;;;17.00;47.80;;;;;;5072245;28;20167;-56
2023/02/10 02:08:17;;;;;;;6.22;5.63;;;17.00;47.80;;;;;;5072293;28;20216;-55
2023/02/10 02:10:58;;;;;;;6.45;5.85;;;17.00;47.70;;;;;;5070848;28;20190;-55
2023/02/10 02:14:05;;;;;;;6.90;6.30;;;16.90;47.80;;;;;;5070637;28;20547;-55
2023/02/10 02:16:34;;;;;;;6.20;5.45;;;16.90;47.80;;;;;;5010274;28;20177;-55
2023/02/10 02:19:10;;;;;;;6.40;5.80;;;16.90;47.80;;;;;;5043361;28;20179;-55
2023/02/10 02:21:42;;;;;;;5.95;5.45;;;16.90;47.80;;;;;;5069475;28;20214;-55
2023/02/10 02:24:28;;;;;;;6.40;5.82;;;16.90;47.80;;;;;;5072269;28;20167;-56
2023/02/10 02:27:28;;;;;;;6.13;5.63;;;16.90;47.80;;;;;;5075007;28;20175;-53
2023/02/10 02:30:32;;;;;;;6.57;5.97;;;16.90;47.80;;;;;;5074253;28;20181;-52
2023/02/10 02:33:01;;;;;;;6.25;5.65;;;16.90;47.80;;;;;;5074737;28;20175;-55
2023/02/10 02:35:30;;;;;;;6.32;5.75;;;16.80;47.70;;;;;;5074106;28;20175;-55
2023/02/10 02:37:56;;;;;;;6.10;5.55;;;16.80;47.70;;;;;;5074057;28;20186;-55
2023/02/10 02:40:21;;;;;;;6.25;5.63;;;16.80;47.70;;;;;;5074458;28;20171;-54
2023/02/10 02:42:48;;;;;;;6.68;6.07;;;16.80;47.70;;;;;;5074540;28;20202;-53
2023/02/10 02:45:16;;;;;;;6.20;5.70;;;16.80;47.70;;;;;;5075199;28;20182;-53
2023/02/10 02:47:47;;;;;;;6.50;6.00;;;16.80;47.90;;;;;;5075145;28;20181;-55
2023/02/10 02:50:44;;;;;;;6.72;6.13;;;16.80;47.90;;;;;;5075411;28;20166;-52
2023/02/10 02:53:32;;;;;;;6.32;5.78;;;16.80;47.90;;;;;;5073801;28;20186;-53
2023/02/10 02:56:34;;;;;;;6.38;5.78;;;16.80;47.90;;;;;;5073872;28;20185;-53
2023/02/10 02:59:11;;;;;;;6.13;5.63;;;16.70;47.90;;;;;;5075103;28;20185;-55
2023/02/10 03:01:49;;;;;;;6.55;5.95;;;16.70;47.90;;;;;;5073679;28;20194;-51
2023/02/10 03:04:15;;;;;;;6.38;5.78;;;16.70;47.90;;;;;;5075328;28;20577;-52
2023/02/10 03:06:41;;;;;;;5.78;5.28;;;16.70;47.80;;;;;;5073474;28;20182;-55
2023/02/10 03:09:06;;;;;;;6.28;5.72;;;16.70;47.90;;;;;;5074395;28;20218;-55
2023/02/10 03:11:32;;;;;;;5.95;5.50;;;16.70;47.80;;;;;;5073329;28;20253;-50
2023/02/10 03:13:57;;;;;;;7.30;5.97;;;16.70;47.80;;;;;;5074634;28;20178;-53
2023/02/10 03:16:23;;;;;;;6.55;5.95;;;16.70;47.80;;;;;;5074314;28;20216;-51
2023/02/10 03:18:48;;;;;;;6.15;5.65;;;16.70;47.80;;;;;;5075065;28;20170;-53
2023/02/10 03:21:14;;;;;;;6.07;5.57;;;16.70;47.80;;;;;;5074546;28;20244;-53
2023/02/10 03:23:39;;;;;;;6.40;5.68;;;16.60;47.70;;;;;;5073954;28;20170;-52
2023/02/10 03:26:05;;;;;;;6.65;6.05;;;16.60;47.80;;;;;;5074842;28;20170;-50
2023/02/10 03:28:30;;;;;;;6.32;5.72;;;16.60;47.70;;;;;;5074328;28;20173;-54
2023/02/10 03:30:56;;;;;;;6.20;5.60;;;16.60;47.80;;;;;;5073999;28;20174;-53
2023/02/10 03:33:22;;;;;;;6.78;6.15;;;16.60;47.80;;;;;;5074513;28;20175;-54
2023/02/10 03:35:47;;;;;;;6.28;5.70;;;16.60;47.80;;;;;;5073272;28;20166;-56
2023/02/10 03:38:13;;;;;;;6.15;5.57;;;16.60;47.80;;;;;;5074077;28;20227;-52
2023/02/10 03:40:39;;;;;;;6.78;6.18;;;16.60;47.80;;;;;;5073915;28;20216;-53
2023/02/10 03:43:05;;;;;;;6.00;5.47;;;16.60;47.80;;;;;;5074417;28;20258;-54
2023/02/10 03:45:30;;;;;;;6.20;5.63;;;16.60;48.40;;;;;;5073668;28;20195;-55
2023/02/10 03:47:56;;;;;;;5.72;5.22;;;16.50;47.70;;;;;;5073676;28;20630;-54
2023/02/10 03:50:21;;;;;;;6.07;5.57;;;16.50;47.80;;;;;;5074221;28;20662;-53
2023/02/10 03:52:47;;;;;;;6.25;5.75;;;16.60;47.80;;;;;;5073334;28;20540;-55
2023/02/10 03:55:17;;;;;;;6.07;5.57;;;16.50;47.70;;;;;;5073962;28;20544;-54
2023/02/10 03:57:43;;;;;;;5.97;5.47;;;16.50;47.80;;;;;;5073640;28;20554;-55
2023/02/10 04:00:09;;;;;;;5.63;5.22;;;16.50;47.80;;;;;;5073376;28;20174;-53
2023/02/10 04:02:34;;;;;;;6.47;5.97;;;16.50;47.80;;;;;;5073477;28;20210;-56
2023/02/10 04:05:00;;;;;;;6.25;5.75;;;16.50;47.80;;;;;;5074046;28;20173;-54
2023/02/10 04:07:25;;;;;;;6.45;5.85;;;16.50;47.80;;;;;;5073361;28;20182;-56
2023/02/10 04:09:51;;;;;;;6.60;6.00;;;16.40;47.70;;;;;;5073129;28;20226;-55
2023/02/10 04:12:16;;;;;;;5.95;5.35;;;16.50;47.70;;;;;;5073170;28;20177;-54
2023/02/10 04:14:42;;;;;;;6.40;5.80;;;16.40;47.70;;;;;;5073348;28;20540;-54
2023/02/10 04:17:07;;;;;;;6.38;5.88;;;16.40;47.70;;;;;;5073360;28;20628;-54
2023/02/10 04:19:33;;;;;;;6.20;5.70;;;16.40;47.70;;;;;;5072878;28;20167;-56
2023/02/10 04:21:58;;;;;;;6.05;5.55;;;16.40;47.70;;;;;;5073486;28;20666;-54
2023/02/10 04:24:24;;;;;;;6.60;6.00;;;16.40;47.70;;;;;;5073298;28;20621;-53
2023/02/10 04:26:49;;;;;;;5.53;5.03;;;16.40;47.70;;;;;;5072627;28;20647;-55
2023/02/10 04:29:15;;;;;;;6.40;5.80;;;16.40;47.70;;;;;;5073515;28;20178;-54
2023/02/10 04:31:40;;;;;;;6.43;5.78;;;16.40;47.70;;;;;;5073216;28;20174;-51
2023/02/10 04:34:06;;;;;;;6.60;6.00;;;16.30;47.70;;;;;;5072932;28;20231;-52
2023/02/10 04:36:31;;;;;;;6.63;6.03;;;16.30;47.70;;;;;;5072819;28;20574;-54
2023/02/10 04:38:57;;;;;;;6.45;5.85;;;16.30;47.70;;;;;;5073267;28;20649;-52
2023/02/10 04:41:23;;;;;;;7.18;6.47;;;16.30;47.70;;;;;;5072594;28;20301;-53
2023/02/10 04:43:48;;;;;;;6.50;5.95;;;16.30;47.70;;;;;;5072655;28;20257;-53
2023/02/10 04:46:14;;;;;;;6.68;6.07;;;16.30;47.70;;;;;;5073109;28;20534;-55
2023/02/10 04:48:39;;;;;;;6.53;5.93;;;16.30;47.80;;;;;;5072521;28;20663;-53
2023/02/10 04:51:11;;;;;;;6.05;5.45;;;16.30;47.80;;;;;;5073041;28;20174;-54
2023/02/10 04:53:37;;;;;;;6.25;5.75;;;16.30;47.80;;;;;;5072855;28;20175;-53
2023/02/10 04:56:03;;;;;;;6.45;5.90;;;16.30;47.80;;;;;;5072402;28;20649;-53
2023/02/10 04:58:30;;;;;;;6.70;6.10;;;16.30;47.80;;;;;;5073007;28;20197;-53
2023/02/10 05:00:55;;;;;;;6.47;5.93;;;16.20;47.70;;;;;;5072871;28;20186;-50
2023/02/10 05:03:21;;;;;;;6.85;6.25;;;16.20;47.70;;;;;;5072584;28;20187;-51
2023/02/10 05:05:46;;;;;;;5.90;5.40;;;16.20;47.80;;;;;;5072520;28;20176;-54
2023/02/10 05:08:12;;;;;;;6.75;6.15;;;16.20;47.80;;;;;;5072836;28;20174;-53
2023/02/10 05:10:38;;;;;;;6.25;5.75;;;16.20;47.80;;;;;;5072043;28;20539;-51
2023/02/10 05:13:03;;;;;;;6.60;6.00;;;16.20;47.80;;;;;;5072701;28;20290;-52
2023/02/10 05:15:29;;;;;;;6.05;5.55;;;16.20;47.80;;;;;;5072479;28;20231;-50
2023/02/10 05:17:54;;;;;;;6.63;6.05;;;16.20;47.70;;;;;;5072579;28;20182;-51
2023/02/10 05:20:20;;;;;;;6.55;5.95;;;16.20;47.70;;;;;;5072615;28;20171;-53
2023/02/10 05:22:45;;;;;;;6.80;6.20;;;16.20;47.80;;;;;;5071801;28;20232;-52
2023/02/10 05:25:11;;;;;;;6.60;6.05;;;16.20;47.70;;;;;;5072734;28;20210;-51
2023/02/10 05:27:36;;;;;;;6.75;6.18;;;16.10;47.60;;;;;;5072146;28;20221;-54
2023/02/10 05:30:03;;;;;;;6.47;5.88;;;16.10;47.60;;;;;;5072327;28;20628;-53
2023/02/10 05:32:29;;;;;;;6.72;6.13;;;16.10;47.60;;;;;;5072428;28;20670;-53
2023/02/10 05:34:54;;;;;;;6.85;6.25;;;16.10;47.60;;;;;;5072300;28;20206;-50
2023/02/10 05:37:20;;;;;;;6.82;6.22;;;16.10;47.60;;;;;;5072257;28;20270;-54
2023/02/10 05:39:45;;;;;;;6.25;5.65;;;16.10;47.60;;;;;;5072106;28;20285;-51
2023/02/10 05:42:11;;;;;;;6.40;5.90;;;16.10;47.70;;;;;;5072655;28;20300;-54
2023/02/10 05:44:37;;;;;;;6.85;6.25;;;16.00;47.70;;;;;;5071999;28;20174;-54
2023/02/10 05:47:02;;;;;;;6.30;5.80;;;16.00;47.70;;;;;;5072439;28;20182;-54
2023/02/10 05:49:28;;;;;;;6.63;6.13;;;16.00;48.20;;;;;;5072553;28;20178;-53
2023/02/10 05:51:53;;;;;;;6.60;5.97;;;16.00;47.70;;;;;;5071629;28;20672;-55
2023/02/10 05:54:19;;;;;;;7.05;6.45;;;16.00;47.70;;;;;;5072203;28;20213;-56
2023/02/10 05:56:45;;;;;;;7.03;6.43;;;16.10;48.40;;;;;;5072025;28;20636;-55
2023/02/10 05:59:14;;;;;;;6.82;6.22;;;16.00;47.80;;;;;;5073553;28;20177;-55
2023/02/10 06:01:40;;;;;;;7.00;6.30;;;16.00;47.90;;;;;;5074554;28;20302;-55
2023/02/10 06:04:05;;;;;;;7.13;6.53;;;16.00;47.80;;;;;;5076385;28;20190;-54
2023/02/10 06:06:31;;;;;;;7.78;6.63;;;16.00;47.80;;;;;;5075521;28;20624;-54
2023/02/10 06:08:56;;;;;;;8.02;7.22;;;16.00;47.90;;;;;;5075320;28;20317;-54
2023/02/10 06:11:22;;;;;;;7.78;6.05;;;16.00;47.80;;;;;;5076057;28;20265;-55
2023/02/10 06:13:47;;;;;;;6.88;6.28;;;16.00;47.90;;;;;;5075109;28;20174;-54
2023/02/10 06:16:13;;;;;;;7.35;6.75;;;15.90;47.80;;;;;;5075793;28;20202;-54
2023/02/10 06:18:38;;;;;;;7.18;6.47;;;15.90;47.80;;;;;;5075783;28;20205;-56
2023/02/10 06:21:04;;;;;;;7.97;7.30;;;15.90;47.80;;;;;;5075457;28;20197;-56
2023/02/10 06:23:29;;;;;;;7.07;6.47;;;15.90;47.80;;;;;;5075472;28;20647;-55
2023/02/10 06:25:57;;;;;;;6.72;6.13;;;15.90;47.90;;;;;;5075082;28;20181;-55
2023/02/10 06:28:23;;;;;;;7.18;6.47;;;15.90;47.90;;;;;;5075905;28;20180;-56
2023/02/10 06:30:49;;;;;;;8.02;7.32;;;15.90;47.80;;;;;;5075456;28;20202;-55
2023/02/10 06:33:14;;;;;;;7.18;6.57;;;15.90;47.80;;;;;;5075304;28;20320;-55
2023/02/10 06:35:40;;;;;;;7.75;6.95;;;15.90;47.80;;;;;;5075278;28;20190;-57
2023/02/10 06:38:05;;;;;;;6.80;6.20;;;15.90;47.70;;;;;;5075520;28;20174;-55
2023/02/10 06:40:31;;;;;;;7.90;7.30;;;15.80;47.70;;;;;;5075101;28;20171;-54
2023/02/10 06:42:56;;;;;;;8.23;7.43;;;15.90;47.80;;;;;;5075393;28;20359;-56
2023/02/10 06:45:22;;;;;;;8.23;7.20;;;15.80;47.70;;;;;;5075520;28;20201;-54
2023/02/10 06:47:47;;;;;;;7.32;6.72;;;15.80;47.70;;;;;;5074547;28;20582;-50
2023/02/10 06:50:13;;;;;;;7.43;6.70;;;15.80;47.70;;;;;;5075163;28;20170;-53
2023/02/10 06:52:39;;;;;;;7.05;6.45;;;15.80;47.80;;;;;;5074945;28;20170;-50
2023/02/10 06:55:06;;;;;;;8.15;7.35;;;15.80;47.70;;;;;;5074911;28;20201;-55
2023/02/10 06:57:32;;;;;;;7.35;6.75;;;15.80;47.80;;;;;;5074993;28;20181;-53
2023/02/10 06:59:58;;;;;;;7.35;6.65;;;15.80;47.90;;;;;;5075184;28;20179;-56
2023/02/10 07:02:24;;;;;;;7.63;6.93;;;15.80;47.90;;;;;;5074514;28;20316;-54
2023/02/10 07:04:49;;;;;;;7.25;6.55;;;15.80;47.90;;;;;;5074592;28;20202;-56
2023/02/10 07:07:15;;;;;;;6.82;6.22;;;15.90;47.80;;;;;;5074962;28;20640;-54
2023/02/10 07:09:40;;;;;;;7.88;7.18;;;16.00;47.80;;;;;;5073691;28;20219;-52
2023/02/10 07:12:06;;;;;;;7.35;6.65;;;16.00;47.60;;;;;;5074819;28;20171;-52
2023/02/10 07:14:32;;;;;;;6.25;5.75;;;16.10;47.70;;;;;;5074551;28;20182;-54
2023/02/10 07:16:57;;;;;;;6.85;6.22;;;16.20;47.60;;;;;;5074423;28;20224;-53
2023/02/10 07:19:23;;;;;;;8.00;7.20;;;16.20;47.60;;;;;;5074552;28;20170;-52
2023/02/10 07:21:48;;;;;;;7.40;6.70;;;16.30;47.60;;;;;;5074333;28;20210;-54
2023/02/10 07:24:14;;;;;;;7.10;6.40;;;16.50;47.30;;;;;;5074101;28;20269;-53
2023/02/10 07:26:40;;;;;;;7.55;6.85;;;16.60;47.20;;;;;;5074252;28;20536;-53
2023/02/10 07:29:05;;;;;;;7.35;6.65;;;16.80;47.10;;;;;;5074466;28;20170;-54
2023/02/10 07:31:34;;;;;;;7.47;6.70;;;16.90;46.90;;;;;;5074587;28;20228;-53
2023/02/10 07:34:00;;;;;;;7.90;7.10;;;17.00;46.70;;;;;;5074323;28;20254;-55
2023/02/10 07:36:26;;;;;;;7.50;6.80;;;17.10;46.60;;;;;;5073878;28;20945;-53
2023/02/10 07:38:51;;;;;;;6.82;5.95;;;17.20;46.40;;;;;;5074033;28;20177;-55
2023/02/10 07:41:17;;;;;;;7.00;6.30;;;17.30;46.30;;;;;;5074309;28;20202;-54
2023/02/10 07:43:42;;;;;;;7.68;6.97;;;17.30;46.20;;;;;;5073263;28;20210;-66
2023/02/10 07:46:08;;;;;;;7.25;6.55;;;17.30;46.20;;;;;;5073896;28;20174;-62
2023/02/10 07:48:33;;;;;;;7.68;6.88;;;17.30;46.60;;;;;;5073726;28;20171;-65
2023/02/10 07:50:59;;;;;;;8.13;6.70;;;17.30;46.80;;;;;;5073559;28;20315;-62
2023/02/10 07:53:24;;;;;;;9.35;7.22;;;17.40;47.00;;;;;;5073705;28;20643;-61
2023/02/10 07:55:50;;;;;;;7.30;6.60;;;17.40;46.90;;;;;;5073639;28;20170;-63
2023/02/10 07:58:15;;;;;;;11.00;7.50;;;17.50;47.10;;;;;;5073165;28;20177;-64
2023/02/10 08:00:41;;;;;;;8.70;6.95;;;17.50;47.00;;;;;;5073059;28;20224;-64
2023/02/10 08:03:11;;;;;;;7.85;6.80;;;17.60;47.00;;;;;;5073594;28;20202;-64
2023/02/10 08:05:36;;;;;;;7.40;6.70;;;17.60;47.00;;;;;;5071614;28;20543;-64
2023/02/10 08:08:02;;;;;;;8.45;6.40;;;17.60;46.90;;;;;;5073613;28;20179;-64
2023/02/10 08:10:27;;;;;;;7.65;6.88;;;17.60;47.00;;;;;;5073334;28;20268;-63
2023/02/10 08:12:53;;;;;;;8.50;6.70;;;17.60;47.00;;;;;;5072935;28;20637;-63
2023/02/10 08:15:21;;;;;;;7.20;6.50;;;17.50;47.10;;;;;;5073371;28;20170;-64
2023/02/10 08:17:46;;;;;;;8.07;6.93;;;17.50;47.20;;;;;;5073139;28;20220;-63
2023/02/10 08:20:12;;;;;;;7.00;6.30;;;17.40;47.30;;;;;;5072757;28;20178;-62
2023/02/10 08:22:37;;;;;;;7.60;6.80;;;17.30;47.40;;;;;;5072069;28;20259;-63
2023/02/10 08:25:03;;;;;;;8.05;7.25;;;17.30;47.50;;;;;;5073346;28;20258;-62
2023/02/10 08:27:29;;;;;;;7.55;6.75;;;17.30;47.60;;;;;;5072428;28;20586;-64
2023/02/10 08:29:55;;;;;;;7.40;6.70;;;17.30;47.60;;;;;;5072541;28;20176;-63
2023/02/10 08:32:21;;;;;;;7.97;6.80;;;17.20;47.60;;;;;;5073062;28;20202;-65
2023/02/10 08:34:47;;;;;;;8.75;7.20;;;17.10;47.90;;;;;;5072548;28;20524;-65
2023/02/10 08:37:13;;;;;;;8.40;7.60;;;17.10;48.00;;;;;;5072727;28;20174;-64
2023/02/10 08:39:38;;;;;;;8.70;7.57;;;17.00;47.70;;;;;;5072227;28;20192;-64
2023/02/10 08:42:04;;;;;;;9.18;7.07;;;17.00;47.90;;;;;;5072918;28;20618;-63
2023/02/10 08:44:29;;;;;;;7.72;6.93;;;17.00;47.90;;;;;;5073162;28;20508;-69
2023/02/10 08:46:55;;;;;;;8.13;7.32;;;17.00;48.00;;;;;;5072282;28;20182;-66
2023/02/10 08:49:23;;;;;;;8.25;7.53;;;17.00;48.00;;;;;;5071438;28;20194;-64
2023/02/10 08:51:48;;;;;;;8.13;7.05;;;16.90;48.00;;;;;;5072872;28;20566;-65
2023/02/10 08:54:14;;;;;;;8.15;7.35;;;16.90;48.00;;;;;;5072377;28;20643;-65
2023/02/10 08:56:39;;;;;;;8.48;7.63;;;16.90;48.10;;;;;;5072390;28;20186;-66
2023/02/10 08:59:05;;;;;;;8.90;7.68;;;16.80;48.10;;;;;;5072350;28;20170;-65
2023/02/10 09:01:31;;;;;;;9.98;7.50;;;16.80;48.30;;;;;;5071981;28;20206;-64
2023/02/10 09:03:56;;;;;;;9.50;7.00;;;16.80;48.40;;;;;;5072245;28;20185;-64
2023/02/10 09:06:43;;;;;;;7.70;6.90;;;16.80;48.40;;;;;;5072629;28;20247;-63
2023/02/10 09:09:21;;;;;;;8.43;7.43;;;16.80;48.40;;;;;;5072015;28;20279;-62
2023/02/10 09:11:47;;;;;;;8.20;7.10;;;16.80;48.40;;;;;;5072183;28;20219;-63
2023/02/10 09:14:12;;;;;;;7.50;6.78;;;16.80;48.30;;;;;;5072822;28;20166;-63
2023/02/10 09:16:38;;;;;;;8.27;6.97;;;16.80;48.30;;;;;;5071704;28;20181;-64
2023/02/10 09:19:03;;;;;;;8.02;6.72;;;16.90;48.30;;;;;;5072645;28;20178;-63
2023/02/10 09:21:29;;;;;;;7.70;6.88;;;16.80;48.10;;;;;;5072497;28;20723;-63
2023/02/10 09:23:54;;;;;;;7.18;6.47;;;16.80;48.10;;;;;;5071737;28;20261;-63
2023/02/10 09:26:20;;;;;;;8.30;7.22;;;16.80;48.10;;;;;;5070829;28;20205;-63
2023/02/10 09:28:45;;;;;;;6.72;6.03;;;16.70;48.10;;;;;;5071793;28;20210;-64
2023/02/10 09:31:11;;;;;;;7.50;6.65;;;16.70;48.10;;;;;;5072237;28;20505;-64
2023/02/10 09:33:37;;;;;;;8.00;7.18;;;16.70;48.20;;;;;;5074456;28;20232;-64
2023/02/10 09:36:04;;;;;;;7.80;6.60;;;16.70;48.40;;;;;;5076084;28;20193;-64
2023/02/10 09:38:30;;;;;;;6.78;6.18;;;16.80;48.20;;;;;;5076330;28;20185;-63
2023/02/10 09:41:08;;;;;;;8.35;7.00;;;16.80;48.20;;;;;;5076030;28;20249;-63
2023/02/10 09:43:56;;;;;;;7.43;6.72;;;16.80;48.10;;;;;;5075546;28;20281;-62
2023/02/10 09:46:27;;;;;;;7.10;6.40;;;16.80;48.00;;;;;;5076339;28;20324;-63
2023/02/10 09:49:11;;;;;;;7.10;6.40;;;16.80;48.00;;;;;;5076172;28;20181;-61
2023/02/10 09:52:04;;;;;;;8.50;7.28;;;16.80;48.10;;;;;;5075492;28;20200;-62
2023/02/10 09:54:32;;;;;;;8.43;6.68;;;16.80;48.00;;;;;;5076202;28;20671;-63
2023/02/10 09:57:19;;;;;;;8.60;6.85;;;16.70;48.10;;;;;;5074669;28;20183;-64
2023/02/10 09:59:44;;;;;;;6.63;6.03;;;16.80;48.10;;;;;;5075690;28;20178;-64
2023/02/10 10:02:31;;;;;;;7.25;6.43;;;16.70;48.10;;;;;;5074757;28;20301;-64
2023/02/10 10:04:58;;;;;;;7.45;6.72;;;16.80;48.10;;;;;;5074800;28;20178;-64
2023/02/10 10:07:29;;;;;;;6.93;6.22;;;16.80;48.00;;;;;;5075901;28;20265;-63
2023/02/10 10:10:02;;;;;;;7.88;7.07;;;16.90;48.00;;;;;;5074194;28;20236;-63
2023/02/10 10:12:28;;;;;;;6.97;6.20;;;17.00;47.90;;;;;;5075387;28;20170;-64
2023/02/10 10:14:53;;;;;;;7.28;6.40;;;17.00;47.80;;;;;;5073990;28;20171;-64
2023/02/10 10:17:31;;;;;;;7.32;6.50;;;17.00;47.80;;;;;;5075666;28;20167;-63
2023/02/10 10:20:22;;;;;;;6.75;6.07;;;17.00;47.80;;;;;;5075251;28;20269;-63
2023/02/10 10:23:15;;;;;;;7.35;6.63;;;17.00;47.80;;;;;;5075324;28;20226;-63
2023/02/10 10:25:45;;;;;;;6.93;6.10;;;16.90;47.80;;;;;;5071882;28;20210;-63
2023/02/10 10:28:35;;;;;;;7.47;6.55;;;16.90;47.80;;;;;;5075440;28;20250;-65
2023/02/10 10:31:36;;;;;;;7.70;6.72;;;16.90;47.90;;;;;;5075548;28;20171;-64
2023/02/10 10:34:10;;;;;;;7.15;6.45;;;16.90;47.90;;;;;;5075149;28;20265;-65
2023/02/10 10:36:38;;;;;;;7.70;6.63;;;16.90;47.90;;;;;;5075209;28;20178;-64
2023/02/10 10:39:28;;;;;;;7.65;6.95;;;17.00;47.80;;;;;;5074906;28;20643;-64
2023/02/10 10:41:55;;;;;;;7.05;6.35;;;17.00;47.80;;;;;;5074901;28;20242;-63
2023/02/10 10:44:20;;;;;;;7.57;6.63;;;17.00;47.70;;;;;;5073357;28;20261;-63
2023/02/10 10:47:09;;;;;;;8.32;7.15;;;17.10;47.70;;;;;;5073541;28;20208;-63
2023/02/10 10:49:35;;;;;;;6.88;6.18;;;17.10;47.60;;;;;;5073164;28;20174;-63
2023/02/10 10:52:01;;;;;;;6.95;6.25;;;17.10;47.60;;;;;;5075359;28;20182;-63
2023/02/10 10:54:27;;;;;;;7.15;6.40;;;17.00;47.70;;;;;;5073315;28;20206;-63
2023/02/10 10:57:03;;;;;;;7.80;6.70;;;17.00;47.70;;;;;;5073463;28;20202;-64
2023/02/10 10:59:31;;;;;;;7.47;6.53;;;17.00;47.80;;;;;;5073772;28;20304;-65
2023/02/10 11:01:56;;;;;;;7.28;6.57;;;17.00;47.80;;;;;;5072834;28;20206;-65
2023/02/10 11:04:24;;;;;;;8.18;7.15;;;17.10;47.80;;;;;;5074171;28;20178;-64
2023/02/10 11:06:52;;;;;;;7.10;6.35;;;17.10;47.70;;;;;;5074474;28;20663;-64
2023/02/10 11:09:26;;;;;;;8.05;6.30;;;17.20;47.60;;;;;;5072638;28;20234;-64
2023/02/10 11:11:52;;;;;;;7.45;6.15;;;17.20;47.60;;;;;;5073346;28;20177;-64
2023/02/10 11:14:23;;;;;;;6.97;6.32;;;17.20;47.60;;;;;;5074218;28;20174;-64
2023/02/10 11:17:00;;;;;;;7.63;6.43;;;17.20;47.60;;;;;;5073073;28;20178;-64
2023/02/10 11:19:31;;;;;;;7.28;6.57;;;17.20;47.60;;;;;;5074615;28;20191;-64
2023/02/10 11:21:56;;;;;;;9.07;6.65;;;17.10;47.60;;;;;;5072748;28;20210;-63
2023/02/10 11:24:25;;;;;;;7.03;6.32;;;17.20;47.70;;;;;;5074477;28;20178;-63
2023/02/10 11:27:12;;;;;;;7.22;6.53;;;17.20;47.80;;;;;;5074345;28;20182;-63
2023/02/10 11:29:56;;;;;;;8.63;6.25;;;17.20;47.80;;;;;;5073559;28;20201;-64
2023/02/10 11:32:29;;;;;;;6.50;5.90;;;17.20;47.70;;;;;;5074375;28;20600;-65
2023/02/10 11:34:56;;;;;;;7.45;6.75;;;17.30;47.60;;;;;;5071844;28;20182;-64
2023/02/10 11:37:30;;;;;;;6.57;5.85;;;17.30;47.70;;;;;;5072247;28;20227;-64
2023/02/10 11:39:56;;;;;;;7.18;6.47;;;17.30;47.70;;;;;;5072824;28;20182;-64
2023/02/10 11:42:23;;;;;;;7.18;6.25;;;17.30;47.80;;;;;;5072304;28;20210;-64
2023/02/10 11:45:15;;;;;;;7.50;6.63;;;17.30;47.80;;;;;;5073691;28;20181;-63
2023/02/10 11:47:41;;;;;;;7.30;6.60;;;17.30;47.90;;;;;;5073852;28;20231;-63
2023/02/10 11:50:24;;;;;;;6.85;6.00;;;17.30;47.90;;;;;;5073519;28;20247;-63
2023/02/10 11:52:50;;;;;;;6.68;5.97;;;17.30;48.00;;;;;;5073264;28;20742;-63
2023/02/10 11:55:15;;;;;;;6.28;5.65;;;17.30;48.00;;;;;;5073806;28;20272;-63
2023/02/10 12:01:13;;;;;;;6.60;5.78;;;17.40;48.00;;;;;;5073802;28;20185;-64
2023/02/10 12:04:01;;;;;;;6.82;6.13;;;17.40;48.00;;;;;;5071497;28;20200;-64
2023/02/10 12:06:51;;;;;;;6.70;6.03;;;17.40;48.00;;;;;;5025977;28;20189;-64
2023/02/10 12:09:34;;;;;;;7.30;6.43;;;17.40;48.00;;;;;;5072332;28;20224;-64
2023/02/10 12:12:01;;;;;;;7.05;6.35;;;17.40;48.00;;;;;;5071721;28;20657;-63
2023/02/10 12:15:04;;;;;;;7.03;6.15;;;17.40;48.10;;;;;;5072132;28;20182;-64
2023/02/10 12:17:56;;;;;;;7.28;6.38;;;17.40;48.10;;;;;;5130413;27;20541;-63
2023/02/10 12:20:37;;;;;;;7.78;6.72;;;17.30;48.20;;;;;;5098839;28;20184;-63
2023/02/10 12:23:24;;;;;;;7.07;6.20;;;17.30;48.20;;;;;;5131351;28;20172;-63
2023/02/10 12:26:08;;;;;;;6.70;5.65;;;17.30;48.30;;;;;;5129149;28;20177;-63
2023/02/10 12:28:56;;;;;;;8.35;6.82;;;17.30;48.30;;;;;;5129624;28;20198;-63
2023/02/10 12:31:49;;;;;;;7.93;6.55;;;17.30;48.30;;;;;;5129924;28;20615;-64
2023/02/10 12:34:28;;;;;;;6.28;5.63;;;17.30;48.30;;;;;;5130844;27;20176;-65
2023/02/10 12:37:09;;;;;;;7.13;6.35;;;17.30;48.30;;;;;;5129254;28;20740;-63
2023/02/10 12:39:54;;;;;;;7.97;6.47;;;17.30;48.30;;;;;;5129192;28;20181;-63
2023/02/10 12:42:28;;;;;;;7.60;6.82;;;17.30;48.30;;;;;;5130592;27;20171;-63
2023/02/10 12:45:04;;;;;;;7.88;6.22;;;17.30;48.30;;;;;;5130495;28;20203;-63
2023/02/10 12:47:36;;;;;;;8.27;6.35;;;17.20;48.40;;;;;;5129060;28;20172;-63
2023/02/10 12:50:26;;;;;;;6.93;6.25;;;17.20;48.40;;;;;;5129655;28;20257;-62
2023/02/10 12:52:56;;;;;;;8.00;6.63;;;17.20;48.40;;;;;;5128732;27;20610;-62
2023/02/10 12:55:24;;;;;;;6.70;6.00;;;17.20;48.40;;;;;;5130276;28;20284;-63
2023/02/10 12:57:52;;;;;;;6.30;5.70;;;17.20;48.30;;;;;;5129316;28;20176;-65
2023/02/10 13:00:28;;;;;;;7.10;6.03;;;17.20;48.30;;;;;;5128903;28;20192;-64
2023/02/10 13:03:08;;;;;;;7.15;6.03;;;17.30;48.30;;;;;;5128852;28;20200;-64